createdAt,value
2023-02-11T00:00:42.229Z,65.13
2023-02-11T00:03:09.301Z,61.13
2023-02-11T00:05:35.726Z,63.67
2023-02-11T00:08:02.138Z,60.45
2023-02-11T00:10:28.565Z,60.28
2023-02-11T00:12:55.027Z,66.45
2023-02-11T00:15:21.512Z,67.13
2023-02-11T00:17:47.943Z,68.50
2023-02-11T00:20:14.517Z,63.60
2023-02-11T00:22:41.188Z,58.25
2023-02-11T00:25:07.770Z,56.08
2023-02-11T00:27:34.200Z,60.05
2023-02-11T00:30:02.183Z,62.03
2023-02-11T00:32:28.670Z,60.45
2023-02-11T00:34:55.382Z,53.65
2023-02-11T00:37:22.222Z,61.08
2023-02-11T00:39:50.074Z,56.35
2023-02-11T00:42:16.943Z,58.67
2023-02-11T00:44:43.352Z,60.22
2023-02-11T00:47:09.855Z,55.95
2023-02-11T00:49:36.994Z,55.50
2023-02-11T00:52:03.774Z,55.35
2023-02-11T00:54:30.161Z,62.60
2023-02-11T00:56:56.582Z,53.95
2023-02-11T00:59:22.964Z,54.33
2023-02-11T01:01:49.577Z,50.90
2023-02-11T01:04:16.118Z,52.85
2023-02-11T01:06:42.689Z,52.05
2023-02-11T01:09:09.146Z,57.40
2023-02-11T01:11:35.832Z,61.83
2023-02-11T01:14:02.902Z,59.35
2023-02-11T01:16:29.480Z,59.00
2023-02-11T01:18:56.055Z,59.42
2023-02-11T01:21:22.509Z,52.70
2023-02-11T01:23:48.904Z,56.60
2023-02-11T01:26:15.291Z,55.58
2023-02-11T01:28:41.781Z,51.08
2023-02-11T01:31:08.305Z,58.20
2023-02-11T01:33:34.790Z,53.33
2023-02-11T01:36:06.096Z,51.92
2023-02-11T01:38:33.115Z,51.78
2023-02-11T01:41:08.195Z,49.55
2023-02-11T01:43:38.135Z,54.80
2023-02-11T01:46:17.245Z,53.42
2023-02-11T01:48:57.371Z,53.95
2023-02-11T01:51:32.828Z,55.72
2023-02-11T01:54:19.515Z,50.47
2023-02-11T01:57:08.245Z,57.22
2023-02-11T01:59:40.787Z,46.33
2023-02-11T02:02:11.824Z,54.03
2023-02-11T02:04:53.469Z,52.80
2023-02-11T02:07:49.588Z,55.33
2023-02-11T02:10:20.773Z,48.55
2023-02-11T02:12:47.231Z,50.65
2023-02-11T02:15:20.830Z,45.72
2023-02-11T02:17:58.778Z,51.25
2023-02-11T02:21:09.025Z,50.72
2023-02-11T02:24:14.259Z,42.47
2023-02-11T02:26:53.357Z,46.10
2023-02-11T02:29:43.544Z,49.13
2023-02-11T02:32:40.888Z,46.03
2023-02-11T02:35:10.473Z,48.25
2023-02-11T02:37:47.859Z,44.40
2023-02-11T02:40:21.113Z,43.40
2023-02-11T02:42:48.739Z,42.25
2023-02-11T02:45:15.624Z,41.75
2023-02-11T02:47:42.065Z,42.50
2023-02-11T02:50:09.827Z,40.50
2023-02-11T02:53:14.321Z,40.08
2023-02-11T02:56:00.783Z,40.35
2023-02-11T02:58:46.008Z,42.10
2023-02-11T03:01:28.725Z,36.33
2023-02-11T03:04:03.860Z,46.90
2023-02-11T03:06:34.126Z,35.08
2023-02-11T03:09:12.797Z,38.72
2023-02-11T03:11:40.343Z,36.20
2023-02-11T03:14:10.601Z,37.03
2023-02-11T03:16:39.595Z,35.88
2023-02-11T03:19:15.562Z,41.20
2023-02-11T03:21:43.313Z,38.55
2023-02-11T03:24:17.362Z,37.22
2023-02-11T03:26:50.140Z,36.15
2023-02-11T03:29:26.197Z,37.65
2023-02-11T03:32:20.614Z,33.00
2023-02-11T03:35:03.933Z,40.13
2023-02-11T03:40:13.472Z,35.92
2023-02-11T03:42:44.916Z,38.03
2023-02-11T03:45:15.618Z,40.40
2023-02-11T03:48:00.543Z,35.00
2023-02-11T03:50:30.496Z,32.90
2023-02-11T03:52:58.836Z,29.40
2023-02-11T03:55:26.610Z,33.35
2023-02-11T03:57:53.145Z,34.33
2023-02-11T04:00:20.028Z,36.78
2023-02-11T04:02:46.729Z,33.03
2023-02-11T04:05:16.063Z,30.35
2023-02-11T04:07:42.591Z,30.00
2023-02-11T04:10:09.331Z,37.63
2023-02-11T04:12:35.787Z,38.05
2023-02-11T04:15:02.436Z,33.97
2023-02-11T04:17:28.920Z,34.67
2023-02-11T04:19:55.365Z,32.90
2023-02-11T04:22:21.996Z,32.38
2023-02-11T04:24:48.545Z,31.67
2023-02-11T04:27:15.001Z,30.55
2023-02-11T04:29:41.588Z,32.80
2023-02-11T04:32:08.357Z,38.25
2023-02-11T04:34:34.936Z,35.58
2023-02-11T04:37:01.531Z,34.00
2023-02-11T04:39:28.049Z,29.95
2023-02-11T04:41:54.588Z,29.67
2023-02-11T04:44:21.047Z,32.20
2023-02-11T04:46:47.585Z,35.08
2023-02-11T04:49:16.005Z,30.33
2023-02-11T04:51:43.243Z,26.67
2023-02-11T04:54:09.763Z,24.65
2023-02-11T04:56:36.308Z,36.20
2023-02-11T04:59:02.994Z,36.55
2023-02-11T05:01:29.809Z,36.38
2023-02-11T05:03:56.738Z,37.40
2023-02-11T05:06:23.358Z,36.08
2023-02-11T05:08:49.959Z,30.88
2023-02-11T05:11:19.006Z,28.67
2023-02-11T05:13:46.355Z,29.60
2023-02-11T05:16:13.457Z,30.35
2023-02-11T05:18:41.727Z,35.88
2023-02-11T05:21:17.759Z,30.35
2023-02-11T05:23:45.337Z,33.17
2023-02-11T05:26:12.550Z,38.55
2023-02-11T05:28:39.612Z,35.47
2023-02-11T05:31:06.372Z,30.23
2023-02-11T05:33:33.227Z,35.03
2023-02-11T05:36:01.229Z,31.80
2023-02-11T05:38:28.087Z,37.17
2023-02-11T05:40:55.331Z,30.73
2023-02-11T05:43:22.272Z,33.80
2023-02-11T05:45:48.988Z,39.85
2023-02-11T05:48:15.688Z,34.80
2023-02-11T05:50:42.618Z,34.75
2023-02-11T05:53:09.237Z,39.40
2023-02-11T05:55:35.921Z,27.30
2023-02-11T05:58:02.525Z,33.95
2023-02-11T06:00:29.114Z,36.17
2023-02-11T06:02:55.677Z,39.83
2023-02-11T06:05:22.271Z,34.45
2023-02-11T06:07:48.745Z,33.75
2023-02-11T06:10:15.431Z,34.15
2023-02-11T06:12:41.952Z,34.95
2023-02-11T06:15:08.935Z,45.58
2023-02-11T06:17:36.576Z,45.55
2023-02-11T06:20:06.441Z,36.78
2023-02-11T06:22:34.059Z,34.65
2023-02-11T06:25:02.288Z,39.20
2023-02-11T06:27:29.627Z,35.78
2023-02-11T06:29:56.170Z,41.30
2023-02-11T06:32:42.633Z,41.40
2023-02-11T06:35:11.738Z,43.97
2023-02-11T06:37:38.652Z,43.38
2023-02-11T06:40:05.572Z,38.65
2023-02-11T06:42:32.084Z,38.97
2023-02-11T06:44:58.639Z,41.20
2023-02-11T06:47:25.377Z,40.40
2023-02-11T06:49:51.983Z,37.92
2023-02-11T06:52:18.503Z,36.80
2023-02-11T06:54:45.001Z,40.90
2023-02-11T06:57:11.730Z,41.78
2023-02-11T06:59:38.278Z,43.10
2023-02-11T07:02:04.882Z,39.33
2023-02-11T07:04:31.476Z,40.70
2023-02-11T07:06:57.904Z,38.72
2023-02-11T07:09:24.348Z,40.60
2023-02-11T07:11:50.837Z,34.25
2023-02-11T07:14:17.358Z,38.90
2023-02-11T07:16:43.825Z,41.15
2023-02-11T07:19:10.863Z,35.75
2023-02-11T07:21:37.510Z,39.08
2023-02-11T07:24:10.761Z,42.30
2023-02-11T07:26:40.648Z,39.60
2023-02-11T07:29:07.225Z,42.05
2023-02-11T07:31:33.790Z,34.30
2023-02-11T07:34:03.248Z,42.40
2023-02-11T07:36:32.025Z,45.15
2023-02-11T07:38:58.957Z,40.70
2023-02-11T07:41:26.138Z,40.65
2023-02-11T07:43:53.022Z,53.72
2023-02-11T07:46:22.185Z,42.38
2023-02-11T07:48:48.986Z,44.20
2023-02-11T07:51:21.145Z,41.17
2023-02-11T07:53:48.128Z,44.87
2023-02-11T07:56:16.413Z,47.85
2023-02-11T07:58:43.613Z,48.53
2023-02-11T08:01:25.526Z,44.65
2023-02-11T08:03:53.354Z,48.15
2023-02-11T08:06:21.694Z,54.15
2023-02-11T08:08:49.314Z,46.20
2023-02-11T08:11:18.866Z,45.65
2023-02-11T08:13:45.943Z,42.88
2023-02-11T08:16:27.622Z,56.28
2023-02-11T08:18:57.634Z,48.60
2023-02-11T08:21:25.197Z,52.95
2023-02-11T08:23:52.223Z,44.83
2023-02-11T08:26:21.583Z,55.92
2023-02-11T08:28:49.656Z,50.72
2023-02-11T08:31:22.056Z,49.42
2023-02-11T08:33:49.075Z,46.40
2023-02-11T08:36:18.108Z,46.70
2023-02-11T08:38:45.206Z,57.78
2023-02-11T08:41:11.909Z,49.92
2023-02-11T08:43:41.695Z,54.67
2023-02-11T08:46:10.028Z,61.65
2023-02-11T08:48:36.565Z,54.58
2023-02-11T08:51:24.689Z,51.53
2023-02-11T08:53:51.901Z,50.45
2023-02-11T08:56:21.577Z,55.63
2023-02-11T08:58:48.117Z,55.08
2023-02-11T09:06:25.904Z,50.83
2023-02-11T09:08:54.608Z,46.85
2023-02-11T09:11:29.699Z,55.05
2023-02-11T09:13:56.198Z,55.47
2023-02-11T09:16:26.165Z,51.53
2023-02-11T09:18:53.577Z,56.72
2023-02-11T09:21:20.372Z,52.72
2023-02-11T09:23:48.042Z,56.95
2023-02-11T09:26:26.761Z,49.40
2023-02-11T09:28:53.535Z,51.85
2023-02-11T09:31:23.070Z,53.92
2023-02-11T09:33:51.866Z,49.70
2023-02-11T09:36:22.081Z,54.38
2023-02-11T09:38:49.428Z,50.90
2023-02-11T09:41:35.340Z,43.50
2023-02-11T09:44:05.429Z,50.88
2023-02-11T09:46:36.734Z,56.58
2023-02-11T09:49:04.887Z,52.50
2023-02-11T09:51:43.017Z,52.55
2023-02-11T09:54:19.228Z,46.28
2023-02-11T09:56:45.725Z,47.40
2023-02-11T09:59:15.935Z,59.10
2023-02-11T10:01:51.251Z,51.58
2023-02-11T10:04:34.439Z,52.60
2023-02-11T10:07:16.656Z,51.25
2023-02-11T10:09:51.825Z,49.47
2023-02-11T10:12:37.802Z,49.45
2023-02-11T10:15:28.396Z,46.63
2023-02-11T10:18:00.871Z,46.67
2023-02-11T10:20:54.577Z,51.95
2023-02-11T10:23:25.692Z,48.80
2023-02-11T10:25:56.288Z,46.60
2023-02-11T10:28:36.671Z,50.40
2023-02-11T10:31:18.034Z,50.35
2023-02-11T10:33:58.386Z,55.45
2023-02-11T10:36:29.280Z,55.33
2023-02-11T10:38:56.556Z,48.85
2023-02-11T10:41:30.253Z,50.28
2023-02-11T10:43:59.269Z,52.28
2023-02-11T10:46:32.014Z,49.70
2023-02-11T10:48:58.688Z,44.85
2023-02-11T10:51:33.489Z,47.45
2023-02-11T10:54:13.884Z,50.45
2023-02-11T10:56:47.364Z,55.60
2023-02-11T10:59:21.658Z,47.53
2023-02-11T11:01:59.237Z,51.75
2023-02-11T11:04:44.856Z,48.92
2023-02-11T11:07:18.030Z,47.35
2023-02-11T11:12:48.796Z,49.10
2023-02-11T11:15:16.405Z,47.55
2023-02-11T11:17:42.875Z,53.20
2023-02-11T11:20:35.245Z,49.35
2023-02-11T11:23:16.662Z,42.28
2023-02-11T11:25:46.422Z,49.72
2023-02-11T11:28:31.851Z,51.30
2023-02-11T11:31:00.450Z,49.92
2023-02-11T11:33:30.902Z,58.75
2023-02-11T11:36:09.502Z,49.20
2023-02-11T11:38:46.001Z,54.97
2023-02-11T11:41:30.597Z,51.90
2023-02-11T11:44:00.871Z,50.78
2023-02-11T11:46:33.311Z,50.75
2023-02-11T11:49:32.767Z,49.92
2023-02-11T11:52:28.418Z,51.53
2023-02-11T11:55:47.796Z,52.90
2023-02-11T11:58:23.423Z,50.78
2023-02-11T12:01:09.665Z,50.55
2023-02-11T12:03:42.203Z,47.63
2023-02-11T12:06:51.405Z,48.70
2023-02-11T12:09:59.401Z,51.95
2023-02-11T12:12:51.551Z,49.28
2023-02-11T12:15:58.486Z,50.92
2023-02-11T12:18:49.205Z,48.38
2023-02-11T12:21:31.058Z,54.17
2023-02-11T12:24:42.344Z,43.90
2023-02-11T12:27:23.823Z,49.17
2023-02-11T12:30:21.367Z,47.65
2023-02-11T12:33:08.966Z,43.88
2023-02-11T12:36:13.932Z,48.17
2023-02-11T12:38:58.821Z,47.53
2023-02-11T12:42:19.637Z,51.80
2023-02-11T12:45:12.032Z,38.83
2023-02-11T12:47:57.529Z,40.13
2023-02-11T12:50:53.225Z,44.20
2023-02-11T12:53:19.571Z,40.97
2023-02-11T12:55:50.763Z,40.08
2023-02-11T12:58:29.616Z,48.50
2023-02-11T13:01:20.222Z,40.83
2023-02-11T13:03:58.994Z,40.35
2023-02-11T13:06:34.611Z,40.38
2023-02-11T13:09:05.643Z,48.20
2023-02-11T13:11:40.285Z,45.10
2023-02-11T13:14:16.581Z,39.47
2023-02-11T13:16:46.076Z,43.33
2023-02-11T13:19:34.621Z,41.40
2023-02-11T13:22:18.268Z,40.53
2023-02-11T13:24:53.336Z,41.35
2023-02-11T13:27:44.172Z,41.17
2023-02-11T13:30:35.049Z,39.85
2023-02-11T13:33:01.502Z,37.28
2023-02-11T13:35:42.062Z,37.78
2023-02-11T13:38:22.988Z,40.30
2023-02-11T13:41:03.933Z,38.42
2023-02-11T13:43:35.968Z,39.40
2023-02-11T13:46:13.693Z,32.95
2023-02-11T13:48:52.605Z,33.13
2023-02-11T13:51:35.781Z,38.30
2023-02-11T13:54:04.195Z,35.33
2023-02-11T13:56:35.458Z,38.55
2023-02-11T13:59:33.421Z,37.03
2023-02-11T14:02:20.137Z,35.53
2023-02-11T14:05:23.225Z,35.78
2023-02-11T14:08:29.623Z,34.83
2023-02-11T14:11:12.680Z,29.95
2023-02-11T14:13:48.207Z,32.80
2023-02-11T14:16:36.493Z,31.67
2023-02-11T14:19:04.578Z,26.27
2023-02-11T14:21:41.901Z,29.65
2023-02-11T14:24:12.922Z,30.48
2023-02-11T14:26:45.017Z,31.00
2023-02-11T14:29:24.665Z,31.67
2023-02-11T14:32:15.474Z,28.70
2023-02-11T14:35:21.510Z,28.50
2023-02-11T14:38:03.168Z,26.77
2023-02-11T14:40:34.586Z,26.77
2023-02-11T14:43:13.670Z,32.47
2023-02-11T14:45:41.011Z,29.52
2023-02-11T14:48:19.684Z,29.48
2023-02-11T14:50:58.665Z,26.60
2023-02-11T14:53:28.395Z,27.65
2023-02-11T14:55:55.572Z,29.30
2023-02-11T14:58:27.981Z,28.40
2023-02-11T15:00:58.564Z,28.85
2023-02-11T15:03:27.388Z,28.13
2023-02-11T15:06:00.284Z,28.60
2023-02-11T15:08:28.438Z,35.33
2023-02-11T15:10:55.611Z,27.40
2023-02-11T15:13:27.094Z,27.40
2023-02-11T15:15:58.001Z,27.00
2023-02-11T15:18:33.280Z,32.42
2023-02-11T15:20:59.945Z,31.15
2023-02-11T15:23:29.625Z,32.15
2023-02-11T15:25:56.614Z,31.35
2023-02-11T15:28:28.778Z,29.27
2023-02-11T15:30:58.498Z,30.55
2023-02-11T15:33:26.011Z,29.23
2023-02-11T15:35:52.516Z,28.60
2023-02-11T15:38:19.320Z,25.15
2023-02-11T15:41:01.035Z,23.23
2023-02-11T15:43:47.702Z,25.33
2023-02-11T15:46:20.812Z,21.27
2023-02-11T15:48:55.163Z,23.73
2023-02-11T15:51:28.678Z,27.73
2023-02-11T15:53:58.645Z,27.42
2023-02-11T15:56:29.761Z,28.17
2023-02-11T15:59:01.952Z,27.63
2023-02-11T16:01:34.469Z,25.60
2023-02-11T16:04:02.406Z,27.95
2023-02-11T16:06:40.000Z,23.23
2023-02-11T16:09:10.887Z,24.88
2023-02-11T16:11:54.915Z,23.52
2023-02-11T16:14:31.023Z,21.50
2023-02-11T16:17:13.102Z,19.45
2023-02-11T16:19:46.754Z,18.63
2023-02-11T16:22:24.648Z,16.15
2023-02-11T16:24:54.987Z,13.30
2023-02-11T16:27:30.200Z,14.93
2023-02-11T16:29:58.189Z,14.98
2023-02-11T16:32:27.337Z,11.52
2023-02-11T16:34:57.841Z,15.27
2023-02-11T16:37:25.492Z,15.10
2023-02-11T16:40:00.955Z,17.30
2023-02-11T16:42:27.534Z,10.60
2023-02-11T16:44:53.984Z,14.80
2023-02-11T16:47:26.692Z,14.38
2023-02-11T16:49:53.882Z,9.00
2023-02-11T16:52:21.719Z,12.30
2023-02-11T16:54:48.797Z,10.55
2023-02-11T16:57:21.015Z,11.95
2023-02-11T16:59:47.774Z,15.00
2023-02-11T17:02:25.049Z,10.88
2023-02-11T17:04:56.095Z,11.55
2023-02-11T17:07:22.785Z,14.18
2023-02-11T17:09:49.313Z,10.90
2023-02-11T17:12:15.690Z,10.45
2023-02-11T17:14:42.163Z,12.35
2023-02-11T17:17:10.008Z,13.40
2023-02-11T17:19:37.205Z,12.15
2023-02-11T17:22:03.801Z,11.18
2023-02-11T17:24:30.711Z,16.33
2023-02-11T17:26:57.251Z,8.43
2023-02-11T17:29:24.852Z,9.65
2023-02-11T17:31:52.712Z,10.18
2023-02-11T17:34:21.804Z,8.73
2023-02-11T17:36:48.426Z,11.98
2023-02-11T17:39:15.181Z,10.38
2023-02-11T17:41:42.006Z,13.60
2023-02-11T17:44:12.205Z,13.85
2023-02-11T17:46:38.641Z,12.32
2023-02-11T17:49:05.186Z,11.40
2023-02-11T17:51:34.727Z,11.95
2023-02-11T17:54:04.503Z,10.32
2023-02-11T17:56:35.931Z,9.13
2023-02-11T17:59:02.940Z,9.85
2023-02-11T18:01:32.633Z,10.35
2023-02-11T18:03:59.284Z,11.90
2023-02-11T18:06:27.020Z,9.02
2023-02-11T18:08:56.873Z,11.57
2023-02-11T18:11:25.252Z,10.50
2023-02-11T18:13:54.441Z,13.68
2023-02-11T18:16:22.872Z,10.70
2023-02-11T18:18:50.045Z,12.48
2023-02-11T18:21:19.530Z,10.52
2023-02-11T18:23:46.862Z,12.73
2023-02-11T18:26:15.202Z,14.77
2023-02-11T18:28:45.287Z,15.05
2023-02-11T18:31:13.904Z,12.05
2023-02-11T18:33:50.025Z,6.90
2023-02-11T18:36:16.969Z,13.85
2023-02-11T18:38:46.270Z,14.07
2023-02-11T18:41:13.531Z,14.25
2023-02-11T18:43:40.894Z,8.98
2023-02-11T18:46:12.376Z,8.30
2023-02-11T18:48:39.166Z,9.98
2023-02-11T18:51:12.070Z,11.93
2023-02-11T18:53:39.123Z,11.25
2023-02-11T18:56:14.882Z,9.82
2023-02-11T18:58:41.825Z,12.30
2023-02-11T19:01:21.108Z,11.60
2023-02-11T19:03:48.358Z,14.55
2023-02-11T19:06:20.422Z,10.48
2023-02-11T19:08:47.507Z,12.85
2023-02-11T19:11:16.105Z,11.13
2023-02-11T19:13:42.622Z,10.20
2023-02-11T19:16:11.445Z,13.60
2023-02-11T19:18:38.678Z,9.00
2023-02-11T19:21:12.657Z,12.10
2023-02-11T19:23:39.157Z,10.90
2023-02-11T19:26:06.533Z,11.00
2023-02-11T19:28:35.169Z,12.02
2023-02-11T19:31:09.604Z,10.90
2023-02-11T19:33:36.212Z,12.23
2023-02-11T19:36:05.053Z,9.45
2023-02-11T19:38:31.627Z,13.57
2023-02-11T19:40:58.384Z,11.90
2023-02-11T19:43:25.787Z,10.60
2023-02-11T19:45:56.177Z,11.07
2023-02-11T19:48:24.025Z,10.43
2023-02-11T19:50:50.884Z,11.32
2023-02-11T19:53:17.495Z,9.43
2023-02-11T19:55:44.214Z,10.05
2023-02-11T19:58:10.763Z,11.70
2023-02-11T20:00:37.342Z,9.05
2023-02-11T20:03:03.918Z,14.65
2023-02-11T20:05:31.411Z,10.98
2023-02-11T20:07:58.180Z,12.88
2023-02-11T20:10:25.554Z,18.90
2023-02-11T20:12:52.095Z,9.15
2023-02-11T20:15:18.762Z,11.55
2023-02-11T20:17:45.392Z,13.05
2023-02-11T20:20:12.903Z,11.02
2023-02-11T20:22:39.466Z,9.45
2023-02-11T20:25:06.528Z,12.88
2023-02-11T20:27:33.470Z,12.30
2023-02-11T20:29:59.978Z,16.23
2023-02-11T20:32:26.495Z,9.75
2023-02-11T20:34:53.061Z,18.08
2023-02-11T20:37:19.499Z,15.10
2023-02-11T20:39:45.930Z,10.23
2023-02-11T20:42:12.471Z,10.48
2023-02-11T20:44:39.061Z,11.23
2023-02-11T20:47:05.566Z,15.35
2023-02-11T20:49:32.214Z,14.35
2023-02-11T20:51:58.831Z,12.35
2023-02-11T20:54:25.817Z,11.38
2023-02-11T20:56:58.163Z,11.45
2023-02-11T20:59:26.450Z,9.57
2023-02-11T21:01:55.494Z,17.42
2023-02-11T21:07:01.089Z,11.45
2023-02-11T21:09:31.318Z,11.75
2023-02-11T21:11:57.847Z,14.68
2023-02-11T21:14:25.629Z,10.10
2023-02-11T21:16:52.546Z,11.45
2023-02-11T21:19:20.350Z,9.65
2023-02-11T21:21:46.996Z,9.07
2023-02-11T21:24:13.624Z,11.68
2023-02-11T21:26:40.167Z,17.17
2023-02-11T21:29:08.292Z,12.32
2023-02-11T21:31:36.418Z,11.25
2023-02-11T21:34:03.515Z,8.60
2023-02-11T21:36:30.713Z,7.47
2023-02-11T21:38:57.545Z,9.40
2023-02-11T21:41:24.867Z,9.55
2023-02-11T21:43:52.527Z,10.80
2023-02-11T21:46:20.780Z,18.45
2023-02-11T21:48:47.675Z,10.85
2023-02-11T21:51:16.984Z,11.50
2023-02-11T21:53:43.870Z,8.52
2023-02-11T21:56:13.643Z,13.20
2023-02-11T21:58:40.188Z,11.98
2023-02-11T22:01:29.730Z,15.38
2023-02-11T22:03:56.414Z,11.05
2023-02-11T22:06:26.751Z,12.70
2023-02-11T22:08:54.786Z,9.32
2023-02-11T22:11:21.397Z,10.30
2023-02-11T22:13:48.029Z,9.82
2023-02-11T22:16:16.662Z,9.85
2023-02-11T22:18:46.993Z,12.93
2023-02-11T22:21:19.037Z,13.32
2023-02-11T22:23:46.162Z,12.93
2023-02-11T22:26:31.540Z,14.30
2023-02-11T22:28:58.094Z,11.68
2023-02-11T22:31:34.997Z,11.77
2023-02-11T22:34:03.083Z,11.65
2023-02-11T22:36:32.718Z,15.13
2023-02-11T22:39:05.833Z,9.60
2023-02-11T22:43:59.307Z,10.73
2023-02-11T22:46:26.279Z,11.32
2023-02-11T22:48:53.207Z,13.70
2023-02-11T22:51:26.145Z,10.55
2023-02-11T22:53:58.539Z,13.77
2023-02-11T22:56:26.514Z,10.63
2023-02-11T22:58:53.722Z,8.50
2023-02-11T23:01:20.665Z,10.40
2023-02-11T23:03:47.346Z,8.05
2023-02-11T23:06:14.143Z,11.45
2023-02-11T23:08:42.808Z,11.90
2023-02-11T23:11:13.060Z,12.73
2023-02-11T23:13:41.334Z,11.77
2023-02-11T23:16:11.113Z,11.40
2023-02-11T23:18:42.839Z,10.43
2023-02-11T23:21:21.278Z,12.85
2023-02-11T23:23:49.501Z,10.27
2023-02-11T23:26:17.862Z,9.70
2023-02-11T23:28:46.107Z,12.40
2023-02-11T23:31:18.611Z,11.70
2023-02-11T23:33:46.138Z,14.38
2023-02-11T23:36:13.501Z,12.20
2023-02-11T23:38:40.073Z,10.40
2023-02-11T23:41:06.642Z,12.32
2023-02-11T23:43:33.218Z,15.68
2023-02-11T23:45:59.872Z,11.13
2023-02-11T23:48:26.835Z,10.23
2023-02-11T23:50:53.425Z,10.55
2023-02-11T23:53:19.852Z,10.10
2023-02-11T23:55:47.008Z,12.23
2023-02-11T23:58:14.456Z,13.50
